createdAt,value
2023-02-03T00:01:29.610Z,99.90
2023-02-03T00:03:58.776Z,99.90
2023-02-03T00:06:26.913Z,99.90
2023-02-03T00:08:56.907Z,99.90
2023-02-03T00:11:24.862Z,99.90
2023-02-03T00:13:52.631Z,99.90
2023-02-03T00:16:20.573Z,99.90
2023-02-03T00:18:48.400Z,99.90
2023-02-03T00:21:17.722Z,99.90
2023-02-03T00:23:45.704Z,99.90
2023-02-03T00:26:16.124Z,99.90
2023-02-03T00:28:45.673Z,99.90
2023-02-03T00:31:18.353Z,99.90
2023-02-03T00:33:47.575Z,99.90
2023-02-03T00:36:16.881Z,99.90
2023-02-03T00:38:44.665Z,99.90
2023-02-03T00:41:12.532Z,99.90
2023-02-03T00:43:40.375Z,99.90
2023-02-03T00:46:09.088Z,99.90
2023-02-03T00:48:36.960Z,99.90
2023-02-03T00:51:05.089Z,99.90
2023-02-03T00:53:34.429Z,99.90
2023-02-03T00:56:02.780Z,99.90
2023-02-03T00:58:30.694Z,99.90
2023-02-03T01:00:58.567Z,99.90
2023-02-03T01:03:26.560Z,99.90
2023-02-03T01:05:54.363Z,99.90
2023-02-03T01:08:23.647Z,99.90
2023-02-03T01:10:52.846Z,99.90
2023-02-03T01:13:20.745Z,99.90
2023-02-03T01:15:49.085Z,99.90
2023-02-03T01:18:16.925Z,99.90
2023-02-03T01:20:45.546Z,99.90
2023-02-03T01:23:13.395Z,99.90
2023-02-03T01:25:41.235Z,99.90
2023-02-03T01:28:10.402Z,99.90
2023-02-03T01:30:38.418Z,99.90
2023-02-03T01:33:06.525Z,99.90
2023-02-03T01:35:35.811Z,99.90
2023-02-03T01:38:04.118Z,99.90
2023-02-03T01:40:32.904Z,99.90
2023-02-03T01:43:01.148Z,99.90
2023-02-03T01:45:30.417Z,99.90
2023-02-03T01:48:01.021Z,99.90
2023-02-03T01:50:32.772Z,99.90
2023-02-03T01:53:03.178Z,99.90
2023-02-03T01:55:35.633Z,99.90
2023-02-03T01:58:07.584Z,99.90
2023-02-03T02:00:36.845Z,99.90
2023-02-03T02:03:06.808Z,99.90
2023-02-03T02:05:38.025Z,99.90
2023-02-03T02:08:07.609Z,99.90
2023-02-03T02:10:35.955Z,99.90
2023-02-03T02:13:05.774Z,99.90
2023-02-03T02:15:43.431Z,99.90
2023-02-03T02:18:25.450Z,99.90
2023-02-03T02:21:27.107Z,99.90
2023-02-03T02:24:22.135Z,99.90
2023-02-03T02:26:57.944Z,99.90
2023-02-03T02:29:57.606Z,99.90
2023-02-03T02:32:42.142Z,99.90
2023-02-03T02:35:21.246Z,99.90
2023-02-03T02:37:59.281Z,99.90
2023-02-03T02:40:37.500Z,99.90
2023-02-03T02:43:14.137Z,99.90
2023-02-03T02:45:49.080Z,99.90
2023-02-03T02:48:23.809Z,99.90
2023-02-03T02:50:54.998Z,99.90
2023-02-03T02:53:26.985Z,99.90
2023-02-03T02:55:58.071Z,99.90
2023-02-03T02:58:27.706Z,99.90
2023-02-03T03:00:56.670Z,99.90
2023-02-03T03:03:26.201Z,99.90
2023-02-03T03:05:56.725Z,99.90
2023-02-03T03:08:34.285Z,99.90
2023-02-03T03:11:03.586Z,99.90
2023-02-03T03:13:34.927Z,99.90
2023-02-03T03:16:07.523Z,99.90
2023-02-03T03:18:43.425Z,99.90
2023-02-03T03:21:16.757Z,99.90
2023-02-03T03:23:47.766Z,99.90
2023-02-03T03:26:19.122Z,99.90
2023-02-03T03:28:50.171Z,99.90
2023-02-03T03:31:20.311Z,99.90
2023-02-03T03:33:49.952Z,99.90
2023-02-03T03:36:25.160Z,99.90
2023-02-03T03:38:58.191Z,99.90
2023-02-03T03:41:36.360Z,99.90
2023-02-03T03:44:07.761Z,99.90
2023-02-03T03:46:41.035Z,99.90
2023-02-03T03:49:13.042Z,99.90
2023-02-03T03:51:45.337Z,99.90
2023-02-03T03:54:16.640Z,99.90
2023-02-03T03:56:51.385Z,99.90
2023-02-03T03:59:22.926Z,99.90
2023-02-03T04:01:52.742Z,99.90
2023-02-03T04:04:24.174Z,99.90
2023-02-03T04:06:54.441Z,99.90
2023-02-03T04:09:22.262Z,99.90
2023-02-03T04:12:02.685Z,99.90
2023-02-03T04:14:31.505Z,99.90
2023-02-03T04:17:00.005Z,99.90
2023-02-03T04:19:29.342Z,99.90
2023-02-03T04:21:57.313Z,99.90
2023-02-03T04:24:25.163Z,99.90
2023-02-03T04:26:53.077Z,99.90
2023-02-03T04:29:20.875Z,99.90
2023-02-03T04:31:48.769Z,99.90
2023-02-03T04:34:16.846Z,99.90
2023-02-03T04:36:46.024Z,99.90
2023-02-03T04:39:13.837Z,99.90
2023-02-03T04:41:41.684Z,99.90
2023-02-03T04:44:09.699Z,99.90
2023-02-03T04:46:37.478Z,99.90
2023-02-03T04:49:05.319Z,99.90
2023-02-03T04:51:33.119Z,99.90
2023-02-03T04:54:02.217Z,99.90
2023-02-03T04:56:30.062Z,99.90
2023-02-03T04:58:57.915Z,99.90
2023-02-03T05:01:25.733Z,99.90
2023-02-03T05:03:53.543Z,99.90
2023-02-03T05:06:24.436Z,99.90
2023-02-03T05:08:52.256Z,99.90
2023-02-03T05:11:21.616Z,99.90
2023-02-03T05:13:49.835Z,99.90
2023-02-03T05:16:17.745Z,99.90
2023-02-03T05:18:45.792Z,99.90
2023-02-03T05:21:13.699Z,99.90
2023-02-03T05:23:41.471Z,99.90
2023-02-03T05:26:09.592Z,99.90
2023-02-03T05:28:38.725Z,99.90
2023-02-03T05:31:06.776Z,99.90
2023-02-03T05:33:34.754Z,99.90
2023-02-03T05:36:02.541Z,99.90
2023-02-03T05:38:30.354Z,99.90
2023-02-03T05:41:15.763Z,99.90
2023-02-03T05:43:44.863Z,99.90
2023-02-03T05:46:12.923Z,99.90
2023-02-03T05:48:41.141Z,99.90
2023-02-03T05:51:08.984Z,99.90
2023-02-03T05:53:36.747Z,99.90
2023-02-03T05:56:04.765Z,99.90
2023-02-03T05:58:32.637Z,99.90
2023-02-03T06:01:01.832Z,99.90
2023-02-03T06:03:29.709Z,99.90
2023-02-03T06:05:58.907Z,99.90
2023-02-03T06:08:28.642Z,99.90
2023-02-03T06:11:00.069Z,99.90
2023-02-03T06:13:28.881Z,99.90
2023-02-03T06:15:57.406Z,99.90
2023-02-03T06:18:26.719Z,99.90
2023-02-03T06:20:54.609Z,99.90
2023-02-03T06:23:22.553Z,99.90
2023-02-03T06:25:52.474Z,99.90
2023-02-03T06:28:20.408Z,99.90
2023-02-03T06:30:52.007Z,99.90
2023-02-03T06:33:20.139Z,99.90
2023-02-03T06:35:49.249Z,99.90
2023-02-03T06:38:17.161Z,99.90
2023-02-03T06:40:47.678Z,99.90
2023-02-03T06:43:15.848Z,99.90
2023-02-03T06:45:46.698Z,99.90
2023-02-03T06:48:15.965Z,99.90
2023-02-03T06:50:43.895Z,99.90
2023-02-03T06:53:13.171Z,99.90
2023-02-03T06:55:41.135Z,99.90
2023-02-03T06:58:09.313Z,99.90
2023-02-03T07:00:38.106Z,99.90
2023-02-03T07:03:06.089Z,99.90
2023-02-03T07:05:35.983Z,99.90
2023-02-03T07:08:06.325Z,99.90
2023-02-03T07:10:35.473Z,99.90
2023-02-03T07:13:04.588Z,99.90
2023-02-03T07:15:32.633Z,99.90
2023-02-03T07:18:00.488Z,99.90
2023-02-03T07:20:29.630Z,99.90
2023-02-03T07:22:59.024Z,99.90
2023-02-03T07:25:27.497Z,99.90
2023-02-03T07:27:56.813Z,99.90
2023-02-03T07:30:24.789Z,99.90
2023-02-03T07:32:54.062Z,99.90
2023-02-03T07:35:22.340Z,99.90
2023-02-03T07:37:50.233Z,99.90
2023-02-03T07:40:18.919Z,99.90
2023-02-03T07:42:48.462Z,99.90
2023-02-03T07:45:18.898Z,99.90
2023-02-03T07:47:46.788Z,99.90
2023-02-03T07:50:14.732Z,99.90
2023-02-03T07:52:42.677Z,99.90
2023-02-03T07:55:10.787Z,99.90
2023-02-03T07:57:43.333Z,99.90
2023-02-03T08:00:13.090Z,99.90
2023-02-03T08:02:42.292Z,99.90
2023-02-03T08:05:10.945Z,99.90
2023-02-03T08:07:39.856Z,99.90
2023-02-03T08:10:09.164Z,99.90
2023-02-03T08:12:37.312Z,99.90
2023-02-03T08:15:06.420Z,99.90
2023-02-03T08:17:34.576Z,99.90
2023-02-03T08:20:03.904Z,99.90
2023-02-03T08:22:31.731Z,99.90
2023-02-03T08:24:59.609Z,99.90
2023-02-03T08:27:27.413Z,99.90
2023-02-03T08:29:55.570Z,99.90
2023-02-03T08:32:24.845Z,99.90
2023-02-03T08:34:53.650Z,99.90
2023-02-03T08:37:24.448Z,99.90
2023-02-03T08:39:53.122Z,99.90
2023-02-03T08:42:21.191Z,99.90
2023-02-03T08:44:49.284Z,99.90
2023-02-03T08:47:19.308Z,99.90
2023-02-03T08:49:47.414Z,99.90
2023-02-03T08:52:18.051Z,99.90
2023-02-03T08:54:48.858Z,99.90
2023-02-03T08:57:16.973Z,99.90
2023-02-03T08:59:45.722Z,99.90
2023-02-03T09:02:17.419Z,99.90
2023-02-03T09:04:47.464Z,99.90
2023-02-03T09:07:15.558Z,99.90
2023-02-03T09:09:43.943Z,99.90
2023-02-03T09:12:14.177Z,99.90
2023-02-03T09:14:42.180Z,99.90
2023-02-03T09:17:12.599Z,99.90
2023-02-03T09:19:40.459Z,99.90
2023-02-03T09:22:08.536Z,99.90
2023-02-03T09:24:36.701Z,99.90
2023-02-03T09:27:04.628Z,99.90
2023-02-03T09:29:33.764Z,99.90
2023-02-03T09:32:07.039Z,99.90
2023-02-03T09:34:35.145Z,99.90
2023-02-03T09:37:04.233Z,99.90
2023-02-03T09:39:32.184Z,99.90
2023-02-03T09:42:29.408Z,99.90
2023-02-03T09:45:09.642Z,99.90
2023-02-03T09:47:41.536Z,99.90
2023-02-03T09:50:14.772Z,99.90
2023-02-03T09:52:44.280Z,99.90
2023-02-03T09:55:25.349Z,99.90
2023-02-03T09:57:59.278Z,99.90
2023-02-03T10:00:31.789Z,99.90
2023-02-03T10:03:06.961Z,99.90
2023-02-03T10:05:49.155Z,99.90
2023-02-03T10:08:27.013Z,99.90
2023-02-03T10:11:11.893Z,99.90
2023-02-03T10:13:49.454Z,99.90
2023-02-03T10:16:44.116Z,99.90
2023-02-03T10:19:16.932Z,99.90
2023-02-03T10:21:48.519Z,99.90
2023-02-03T10:24:20.980Z,99.90
2023-02-03T10:26:49.820Z,99.90
2023-02-03T10:29:21.302Z,99.90
2023-02-03T10:31:50.707Z,99.90
2023-02-03T10:34:20.378Z,99.90
2023-02-03T10:36:56.503Z,99.90
2023-02-03T10:39:31.909Z,99.90
2023-02-03T10:42:00.465Z,99.90
2023-02-03T10:44:36.337Z,99.90
2023-02-03T10:47:16.429Z,99.90
2023-02-03T10:49:45.001Z,99.90
2023-02-03T10:52:28.258Z,99.90
2023-02-03T10:54:59.108Z,99.90
2023-02-03T10:57:30.063Z,99.90
2023-02-03T11:00:22.338Z,99.90
2023-02-03T11:02:59.888Z,99.90
2023-02-03T11:05:27.745Z,99.90
2023-02-03T11:07:56.033Z,99.90
2023-02-03T11:10:34.269Z,99.90
2023-02-03T11:13:21.595Z,99.90
2023-02-03T11:15:58.649Z,99.90
2023-02-03T11:18:44.896Z,99.90
2023-02-03T11:21:16.405Z,99.90
2023-02-03T11:23:52.888Z,99.90
2023-02-03T11:26:23.592Z,99.90
2023-02-03T11:28:53.631Z,99.90
2023-02-03T11:31:25.507Z,99.90
2023-02-03T11:34:01.393Z,99.90
2023-02-03T11:36:31.210Z,99.90
2023-02-03T11:39:12.015Z,99.90
2023-02-03T11:41:40.779Z,99.90
2023-02-03T11:44:13.416Z,99.90
2023-02-03T11:46:41.770Z,99.90
2023-02-03T11:49:37.261Z,99.90
2023-02-03T11:52:19.533Z,99.90
2023-02-03T11:54:55.552Z,99.90
2023-02-03T11:57:37.560Z,99.90
2023-02-03T12:00:19.247Z,99.90
2023-02-03T12:03:36.522Z,99.90
2023-02-03T12:06:29.610Z,99.90
2023-02-03T12:09:10.032Z,99.90
2023-02-03T12:11:52.181Z,99.90
2023-02-03T12:14:31.992Z,99.90
2023-02-03T12:17:18.239Z,99.90
2023-02-03T12:20:00.829Z,99.90
2023-02-03T12:22:35.743Z,99.90
2023-02-03T12:25:10.731Z,99.90
2023-02-03T12:27:51.036Z,99.90
2023-02-03T12:30:23.978Z,99.90
2023-02-03T12:32:59.559Z,99.90
2023-02-03T12:35:33.195Z,99.90
2023-02-03T12:38:06.565Z,99.90
2023-02-03T12:40:37.799Z,99.90
2023-02-03T12:43:25.373Z,99.90
2023-02-03T12:45:56.630Z,99.90
2023-02-03T12:48:27.047Z,99.90
2023-02-03T12:51:01.760Z,99.90
2023-02-03T12:53:35.238Z,99.90
2023-02-03T12:56:10.783Z,99.90
2023-02-03T12:58:42.495Z,99.90
2023-02-03T13:01:15.863Z,99.90
2023-02-03T13:03:50.056Z,99.90
2023-02-03T13:06:26.236Z,99.90
2023-02-03T13:09:02.380Z,99.90
2023-02-03T13:11:36.385Z,99.90
2023-02-03T13:14:11.914Z,99.90
2023-02-03T13:16:44.418Z,99.90
2023-02-03T13:19:18.477Z,99.90
2023-02-03T13:21:48.857Z,99.90
2023-02-03T13:24:18.741Z,99.90
2023-02-03T13:27:12.183Z,99.90
2023-02-03T13:29:52.692Z,99.90
2023-02-03T13:32:37.965Z,99.90
2023-02-03T13:35:33.788Z,99.90
2023-02-03T13:38:34.870Z,99.90
2023-02-03T13:41:08.616Z,99.90
2023-02-03T13:43:40.222Z,99.90
2023-02-03T13:46:20.561Z,99.90
2023-02-03T13:48:48.948Z,99.90
2023-02-03T13:51:21.557Z,99.90
2023-02-03T13:53:51.839Z,99.90
2023-02-03T13:56:23.942Z,99.90
2023-02-03T13:59:02.282Z,99.90
2023-02-03T14:01:38.429Z,99.90
2023-02-03T14:04:09.090Z,99.90
2023-02-03T14:07:02.843Z,99.90
2023-02-03T14:09:41.479Z,99.90
2023-02-03T14:12:42.436Z,99.90
2023-02-03T14:15:31.319Z,99.90
2023-02-03T14:18:06.647Z,99.90
2023-02-03T14:20:57.376Z,99.90
2023-02-03T14:23:39.190Z,99.90
2023-02-03T14:26:21.168Z,99.90
2023-02-03T14:28:53.784Z,99.90
2023-02-03T14:31:22.855Z,99.90
2023-02-03T14:34:05.739Z,99.90
2023-02-03T14:36:41.235Z,99.90
2023-02-03T14:39:58.501Z,99.90
2023-02-03T14:42:40.900Z,99.90
2023-02-03T14:45:22.708Z,99.90
2023-02-03T14:48:02.481Z,99.90
2023-02-03T14:50:42.296Z,99.90
2023-02-03T14:53:28.695Z,99.90
2023-02-03T14:56:09.136Z,99.90
2023-02-03T14:58:43.523Z,99.90
2023-02-03T15:01:24.865Z,99.90
2023-02-03T15:04:21.617Z,99.90
2023-02-03T15:06:52.165Z,99.90
2023-02-03T15:09:26.856Z,99.90
2023-02-03T15:11:54.879Z,99.90
2023-02-03T15:14:25.574Z,99.90
2023-02-03T15:17:00.848Z,99.90
2023-02-03T15:19:29.776Z,99.90
2023-02-03T15:21:57.813Z,99.90
2023-02-03T15:24:25.997Z,99.90
2023-02-03T15:26:56.211Z,99.90
2023-02-03T15:29:28.511Z,99.90
2023-02-03T15:32:16.433Z,99.90
2023-02-03T15:34:46.822Z,99.90
2023-02-03T15:37:19.981Z,99.90
2023-02-03T15:39:55.876Z,99.90
2023-02-03T15:42:27.812Z,99.90
2023-02-03T15:45:01.920Z,99.90
2023-02-03T15:47:38.454Z,99.90
2023-02-03T15:50:25.063Z,99.90
2023-02-03T15:53:01.282Z,99.90
2023-02-03T15:55:36.806Z,99.90
2023-02-03T15:58:05.636Z,99.90
2023-02-03T16:00:42.100Z,99.90
2023-02-03T16:03:21.540Z,99.90
2023-02-03T16:05:50.896Z,99.90
2023-02-03T16:08:37.849Z,99.90
2023-02-03T16:11:38.411Z,99.90
2023-02-03T16:14:08.278Z,99.90
2023-02-03T16:16:49.387Z,99.90
2023-02-03T16:19:25.442Z,99.90
2023-02-03T16:21:55.968Z,99.90
2023-02-03T16:24:42.911Z,99.90
2023-02-03T16:27:38.088Z,99.90
2023-02-03T16:30:42.300Z,99.90
2023-02-03T16:33:36.393Z,99.90
2023-02-03T16:36:32.054Z,99.90
2023-02-03T16:39:21.616Z,99.90
2023-02-03T16:42:06.936Z,99.90
2023-02-03T16:44:52.333Z,99.90
2023-02-03T16:47:43.348Z,99.90
2023-02-03T16:50:38.827Z,99.90
2023-02-03T16:53:13.353Z,99.90
2023-02-03T16:55:41.306Z,99.90
2023-02-03T16:58:09.695Z,99.90
2023-02-03T17:00:41.357Z,99.90
2023-02-03T17:03:11.163Z,99.90
2023-02-03T17:05:40.358Z,99.90
2023-02-03T17:08:10.246Z,99.90
2023-02-03T17:10:39.210Z,99.90
2023-02-03T17:13:07.926Z,99.90
2023-02-03T17:15:39.729Z,99.90
2023-02-03T17:18:07.623Z,99.90
2023-02-03T17:20:35.500Z,99.90
2023-02-03T17:23:03.713Z,99.90
2023-02-03T17:25:33.900Z,99.90
2023-02-03T17:28:01.722Z,99.90
2023-02-03T17:30:33.854Z,99.90
2023-02-03T17:33:02.439Z,99.90
2023-02-03T17:35:30.723Z,99.90
2023-02-03T17:37:58.825Z,99.90
2023-02-03T17:54:16.999Z,99.90
2023-02-03T17:56:47.472Z,99.90
2023-02-03T17:59:17.342Z,99.90
2023-02-03T18:01:46.809Z,99.90
2023-02-03T18:04:15.104Z,99.90
2023-02-03T18:06:43.006Z,99.90
2023-02-03T18:09:14.033Z,99.90
2023-02-03T18:11:42.033Z,99.90
2023-02-03T18:14:11.170Z,99.90
2023-02-03T18:16:40.786Z,99.90
2023-02-03T18:19:12.875Z,99.90
2023-02-03T18:21:41.250Z,99.90
2023-02-03T18:24:10.343Z,99.90
2023-02-03T18:26:47.943Z,99.90
2023-02-03T18:29:15.964Z,99.90
2023-02-03T18:31:45.273Z,99.90
2023-02-03T18:34:13.734Z,99.90
2023-02-03T18:36:42.456Z,99.90
2023-02-03T18:39:12.422Z,99.90
2023-02-03T18:41:41.144Z,99.90
2023-02-03T18:44:09.079Z,99.90
2023-02-03T18:46:37.044Z,99.90
2023-02-03T18:49:09.280Z,99.90
2023-02-03T18:51:37.487Z,99.90
2023-02-03T18:54:06.065Z,99.80
2023-02-03T18:56:35.497Z,97.60
2023-02-03T18:59:08.409Z,97.20
2023-02-03T19:01:37.014Z,97.30
2023-02-03T19:04:06.502Z,97.30
2023-02-03T19:06:35.855Z,95.40
2023-02-03T19:09:05.457Z,95.50
2023-02-03T19:11:35.078Z,95.70
2023-02-03T19:14:03.007Z,96.40
2023-02-03T19:16:31.338Z,96.00
2023-02-03T19:18:59.186Z,96.40
2023-02-03T19:21:28.400Z,95.80
2023-02-03T19:23:56.222Z,96.40
2023-02-03T19:26:24.167Z,96.60
2023-02-03T19:28:52.595Z,96.80
2023-02-03T19:31:20.596Z,97.50
2023-02-03T19:33:48.565Z,97.20
2023-02-03T19:36:16.500Z,97.60
2023-02-03T19:38:46.051Z,96.90
2023-02-03T19:41:14.184Z,96.10
2023-02-03T19:43:42.021Z,96.10
2023-02-03T19:46:10.361Z,95.70
2023-02-03T19:48:39.633Z,96.00
2023-02-03T19:51:08.004Z,96.20
2023-02-03T19:53:36.461Z,96.10
2023-02-03T19:56:06.432Z,96.30
2023-02-03T19:58:34.524Z,96.30
2023-02-03T20:01:02.465Z,96.10
2023-02-03T20:03:30.328Z,95.20
2023-02-03T20:05:58.732Z,95.30
2023-02-03T20:08:27.344Z,95.20
2023-02-03T20:10:55.142Z,94.90
2023-02-03T20:13:24.358Z,95.30
2023-02-03T20:15:52.168Z,95.50
2023-02-03T20:18:20.074Z,94.70
2023-02-03T20:20:51.798Z,94.70
2023-02-03T20:23:19.871Z,93.90
2023-02-03T20:25:49.306Z,94.40
2023-02-03T20:28:17.553Z,95.20
2023-02-03T20:30:47.142Z,95.90
2023-02-03T20:33:15.094Z,96.10
2023-02-03T20:35:42.959Z,97.00
2023-02-03T20:38:10.773Z,97.20
2023-02-03T20:40:38.589Z,97.20
2023-02-03T20:43:19.274Z,96.90
2023-02-03T20:45:50.009Z,96.70
2023-02-03T20:48:19.763Z,96.40
2023-02-03T20:50:48.506Z,96.30
2023-02-03T20:53:18.699Z,96.40
2023-02-03T20:55:47.357Z,96.00
2023-02-03T20:58:19.081Z,95.10
2023-02-03T21:00:49.573Z,94.70
2023-02-03T21:03:37.088Z,95.20
2023-02-03T21:06:13.807Z,94.40
2023-02-03T21:08:43.085Z,94.60
2023-02-03T21:11:13.263Z,94.60
2023-02-03T21:13:43.491Z,93.30
2023-02-03T21:16:18.845Z,92.30
2023-02-03T21:18:48.503Z,92.20
2023-02-03T21:21:20.069Z,92.40
2023-02-03T21:23:48.133Z,92.30
2023-02-03T21:26:19.731Z,93.00
2023-02-03T21:28:49.783Z,93.90
2023-02-03T21:31:25.782Z,94.90
2023-02-03T21:33:55.390Z,95.20
2023-02-03T21:36:24.664Z,95.40
2023-02-03T21:38:54.522Z,94.40
2023-02-03T21:41:24.068Z,94.60
2023-02-03T21:43:53.373Z,95.40
2023-02-03T21:46:26.550Z,95.40
2023-02-03T21:48:56.073Z,95.40
2023-02-03T21:51:26.602Z,95.60
2023-02-03T21:53:57.192Z,96.30
2023-02-03T21:56:27.328Z,96.00
2023-02-03T21:58:59.891Z,96.10
2023-02-03T22:01:35.365Z,96.00
2023-02-03T22:04:06.439Z,96.10
2023-02-03T22:06:43.599Z,96.30
2023-02-03T22:09:13.015Z,96.40
2023-02-03T22:11:40.830Z,96.50
2023-02-03T22:14:08.796Z,96.90
2023-02-03T22:16:38.052Z,97.50
2023-02-03T22:19:05.889Z,98.10
2023-02-03T22:21:35.116Z,98.30
2023-02-03T22:24:03.327Z,98.20
2023-02-03T22:26:31.193Z,98.60
2023-02-03T22:28:59.136Z,98.80
2023-02-03T22:31:27.169Z,98.70
2023-02-03T22:33:56.335Z,99.10
2023-02-03T22:36:25.190Z,99.90
2023-02-03T22:38:53.125Z,99.90
2023-02-03T22:41:21.752Z,99.90
2023-02-03T22:43:49.578Z,99.90
2023-02-03T22:46:17.434Z,99.90
2023-02-03T22:48:45.372Z,99.90
2023-02-03T22:51:14.533Z,99.90
2023-02-03T22:53:42.349Z,99.90
2023-02-03T22:56:10.195Z,99.90
2023-02-03T22:58:37.960Z,99.90
2023-02-03T23:01:06.054Z,99.90
2023-02-03T23:03:33.934Z,99.90
2023-02-03T23:06:01.881Z,99.90
2023-02-03T23:08:30.961Z,99.90
2023-02-03T23:10:58.887Z,99.90
2023-02-03T23:13:26.858Z,99.90
2023-02-03T23:15:54.841Z,99.90
2023-02-03T23:18:22.737Z,99.90
2023-02-03T23:20:50.635Z,99.90
2023-02-03T23:23:18.570Z,99.90
2023-02-03T23:25:47.720Z,99.90
2023-02-03T23:28:15.762Z,99.90
2023-02-03T23:30:43.712Z,99.90
2023-02-03T23:33:11.599Z,99.90
2023-02-03T23:35:47.470Z,99.90
2023-02-03T23:38:16.738Z,99.90
2023-02-03T23:40:45.287Z,99.90
2023-02-03T23:43:14.468Z,99.90
2023-02-03T23:45:42.546Z,99.90
2023-02-03T23:48:10.305Z,99.90
2023-02-03T23:50:38.185Z,99.90
2023-02-03T23:53:06.082Z,99.90
2023-02-03T23:55:33.944Z,99.90
2023-02-03T23:58:01.734Z,99.90
